Time;durP1;ratioP1;P1;durP2;ratioP2;P2;SDS_P1;SDS_P2;PMS_P1;PMS_P2;Temp;Humidity;BMP_temperature;BMP_pressure;BME280_temperature;BME280_humidity;BME280_pressure;Samples;Min_cycle;Max_cycle;Signal;HPM_P1;HPM_P2
2022/06/08 00:01:21;;;;;;;3.00;1.60;;;20.40;62.10;;;;;;5073995;28;20044;-62
2022/06/08 00:03:53;;;;;;;2.53;1.65;;;20.40;62.00;;;;;;5074295;28;20040;-62
2022/06/08 00:06:19;;;;;;;2.75;1.63;;;20.40;62.00;;;;;;5073686;28;20033;-63
2022/06/08 00:08:45;;;;;;;2.58;1.63;;;20.40;62.00;;;;;;5073873;28;20115;-62
2022/06/08 00:11:11;;;;;;;2.60;1.55;;;20.40;62.10;;;;;;5074406;28;20453;-63
2022/06/08 00:13:36;;;;;;;3.10;1.50;;;20.40;62.10;;;;;;5073786;28;20053;-62
2022/06/08 00:16:02;;;;;;;2.28;1.52;;;20.40;62.10;;;;;;5074086;28;20045;-62
2022/06/08 00:18:28;;;;;;;3.67;2.20;;;20.40;62.10;;;;;;5074627;28;20041;-62
2022/06/08 00:20:54;;;;;;;4.18;1.95;;;20.40;62.10;;;;;;5073160;28;20109;-64
2022/06/08 00:23:20;;;;;;;3.88;1.80;;;20.40;62.10;;;;;;5074121;28;20048;-62
2022/06/08 00:25:46;;;;;;;3.45;1.80;;;20.40;62.10;;;;;;5074046;28;20059;-62
2022/06/08 00:28:11;;;;;;;2.55;1.70;;;20.40;62.10;;;;;;5073562;28;20050;-62
2022/06/08 00:30:37;;;;;;;2.55;1.50;;;20.40;62.10;;;;;;5074323;28;20069;-62
2022/06/08 00:33:03;;;;;;;2.30;1.40;;;20.40;62.10;;;;;;5073731;28;20184;-63
2022/06/08 00:35:28;;;;;;;2.80;1.80;;;20.40;62.20;;;;;;5072688;28;20048;-63
2022/06/08 00:37:54;;;;;;;3.55;1.85;;;20.40;62.20;;;;;;5073143;28;20032;-63
2022/06/08 00:40:20;;;;;;;3.25;1.88;;;20.30;62.10;;;;;;5073791;28;20472;-63
2022/06/08 00:42:46;;;;;;;2.10;1.65;;;20.30;62.10;;;;;;5071814;28;20040;-63
2022/06/08 00:45:17;;;;;;;2.67;1.77;;;20.40;62.10;;;;;;5073924;28;20427;-63
2022/06/08 00:47:57;;;;;;;2.72;1.60;;;20.30;62.10;;;;;;5068404;28;20083;-63
2022/06/08 00:50:44;;;;;;;4.80;1.80;;;20.30;62.10;;;;;;5052070;28;20037;-63
2022/06/08 00:53:11;;;;;;;2.97;1.70;;;20.30;62.10;;;;;;5061333;28;20040;-63
2022/06/08 00:55:37;;;;;;;2.72;1.75;;;20.30;62.20;;;;;;5071644;28;20127;-62
2022/06/08 00:58:10;;;;;;;2.20;1.52;;;20.30;62.20;;;;;;5073218;28;20111;-64
2022/06/08 01:00:39;;;;;;;2.97;1.65;;;20.30;62.20;;;;;;5073876;28;20053;-64
2022/06/08 01:03:06;;;;;;;2.03;1.40;;;20.30;62.20;;;;;;5071687;28;20064;-63
2022/06/08 01:05:39;;;;;;;3.47;1.77;;;20.30;62.10;;;;;;5073221;28;20044;-63
2022/06/08 01:08:26;;;;;;;2.42;1.35;;;20.30;62.10;;;;;;5055360;28;20041;-63
2022/06/08 01:10:57;;;;;;;2.78;1.58;;;20.30;62.10;;;;;;5071709;28;20519;-63
2022/06/08 01:13:23;;;;;;;3.15;1.60;;;20.30;62.20;;;;;;5072310;28;20048;-63
2022/06/08 01:15:49;;;;;;;2.17;1.55;;;20.30;62.20;;;;;;5072989;28;20053;-63
2022/06/08 01:18:15;;;;;;;2.95;1.60;;;20.30;62.10;;;;;;5071149;28;20503;-63
2022/06/08 01:21:21;;;;;;;1.90;1.40;;;20.30;62.10;;;;;;5072859;28;20044;-63
2022/06/08 01:23:59;;;;;;;3.60;1.92;;;20.30;62.10;;;;;;5057040;28;20053;-63
2022/06/08 01:26:40;;;;;;;2.83;1.52;;;20.30;62.10;;;;;;5051898;28;20052;-63
2022/06/08 01:29:14;;;;;;;2.45;1.60;;;20.30;62.20;;;;;;5053322;28;20087;-63
2022/06/08 01:32:03;;;;;;;2.58;1.45;;;20.30;62.20;;;;;;5052039;28;20052;-63
2022/06/08 01:34:35;;;;;;;3.15;1.88;;;20.30;62.20;;;;;;5037198;28;20100;-63
2022/06/08 01:37:16;;;;;;;2.10;1.50;;;20.20;62.10;;;;;;5055741;28;20500;-63
2022/06/08 01:40:09;;;;;;;3.22;1.58;;;20.30;62.20;;;;;;5072025;28;20047;-62
2022/06/08 01:42:44;;;;;;;3.10;1.67;;;20.20;62.10;;;;;;5072868;28;20044;-63
2022/06/08 01:45:43;;;;;;;2.60;1.55;;;20.20;62.20;;;;;;5070837;28;20094;-63
2022/06/08 01:48:27;;;;;;;3.90;1.90;;;20.20;62.10;;;;;;5072347;28;20446;-63
2022/06/08 01:51:16;;;;;;;3.22;1.70;;;20.20;62.10;;;;;;5072644;28;20040;-63
2022/06/08 01:53:53;;;;;;;3.08;1.63;;;20.20;62.40;;;;;;5070722;28;20044;-63
2022/06/08 01:56:24;;;;;;;2.45;1.63;;;20.20;62.10;;;;;;5072468;28;20522;-63
2022/06/08 01:59:06;;;;;;;3.00;1.70;;;20.20;62.20;;;;;;5072626;28;20048;-63
2022/06/08 02:01:55;;;;;;;3.72;1.55;;;20.20;62.20;;;;;;5072510;28;20079;-63
2022/06/08 02:04:32;;;;;;;3.05;1.80;;;20.20;62.20;;;;;;5071413;28;20072;-63
2022/06/08 02:07:12;;;;;;;2.72;1.65;;;20.20;62.20;;;;;;5070106;28;20044;-63
2022/06/08 02:09:40;;;;;;;2.35;1.50;;;20.20;62.20;;;;;;5071616;28;20051;-63
2022/06/08 02:12:07;;;;;;;3.17;1.67;;;20.20;62.20;;;;;;5072599;28;20115;-63
2022/06/08 02:14:46;;;;;;;3.10;1.90;;;20.20;62.20;;;;;;5070568;28;20049;-63
2022/06/08 02:17:19;;;;;;;3.58;1.90;;;20.20;62.20;;;;;;5066531;28;20041;-63
2022/06/08 02:19:51;;;;;;;2.50;1.40;;;20.20;62.20;;;;;;5051141;28;20110;-63
2022/06/08 02:22:30;;;;;;;2.88;1.70;;;20.10;62.20;;;;;;5051504;28;20084;-63
2022/06/08 02:25:01;;;;;;;2.60;1.60;;;20.10;62.20;;;;;;5051183;28;20053;-63
2022/06/08 02:27:33;;;;;;;1.48;1.27;;;20.10;62.10;;;;;;5051643;28;20049;-63
2022/06/08 02:30:09;;;;;;;2.75;1.75;;;20.20;62.20;;;;;;5051183;28;20079;-63
2022/06/08 02:35:30;;;;;;;2.38;1.45;;;20.10;62.20;;;;;;5050690;28;20049;-63
2022/06/08 02:38:00;;;;;;;2.20;1.52;;;20.10;62.20;;;;;;5051549;28;20132;-63
2022/06/08 02:40:28;;;;;;;3.45;2.13;;;20.10;62.20;;;;;;5051297;28;20049;-62
2022/06/08 02:42:55;;;;;;;2.90;1.70;;;20.10;62.20;;;;;;5050234;28;20049;-63
2022/06/08 02:45:37;;;;;;;2.75;1.52;;;20.10;62.20;;;;;;5051209;28;20095;-62
2022/06/08 02:48:05;;;;;;;2.28;1.60;;;20.10;62.10;;;;;;5050225;28;20048;-63
2022/06/08 02:50:32;;;;;;;3.00;1.63;;;20.10;62.20;;;;;;5050955;28;20048;-63
2022/06/08 02:53:29;;;;;;;2.72;1.85;;;20.10;62.20;;;;;;5050415;28;20459;-63
2022/06/08 02:56:22;;;;;;;2.30;1.52;;;20.10;62.20;;;;;;5050660;28;20128;-63
2022/06/08 02:59:26;;;;;;;2.97;1.83;;;20.10;62.20;;;;;;5050653;28;20132;-63
2022/06/08 03:02:02;;;;;;;2.30;1.45;;;20.10;62.20;;;;;;5046215;28;20080;-63
2022/06/08 03:04:31;;;;;;;4.72;1.95;;;20.10;62.20;;;;;;5054598;28;20045;-62
2022/06/08 03:06:59;;;;;;;3.50;1.85;;;20.10;62.20;;;;;;5062284;28;20056;-62
2022/06/08 03:09:24;;;;;;;2.35;1.40;;;20.10;62.20;;;;;;5074279;28;20041;-63
2022/06/08 03:11:53;;;;;;;3.35;1.85;;;20.10;62.20;;;;;;5073967;28;20573;-64
2022/06/08 03:14:19;;;;;;;3.33;2.10;;;20.10;62.20;;;;;;5074676;28;20059;-61
2022/06/08 03:17:00;;;;;;;2.60;1.80;;;20.10;62.20;;;;;;5074702;28;20040;-62
2022/06/08 03:19:26;;;;;;;2.10;1.55;;;20.10;62.20;;;;;;5075615;28;20397;-62
2022/06/08 03:21:53;;;;;;;3.00;1.70;;;20.10;62.20;;;;;;5075065;28;20044;-62
2022/06/08 03:24:19;;;;;;;2.97;1.70;;;20.10;62.20;;;;;;5074822;28;20063;-62
2022/06/08 03:26:48;;;;;;;2.92;1.80;;;20.10;62.20;;;;;;5075164;28;20040;-62
2022/06/08 03:29:15;;;;;;;2.60;1.98;;;20.10;62.20;;;;;;5075385;28;20048;-62
2022/06/08 03:31:41;;;;;;;3.78;2.08;;;20.00;62.20;;;;;;5073075;28;20060;-62
2022/06/08 03:34:07;;;;;;;2.92;1.90;;;20.10;62.20;;;;;;5075291;28;20472;-62
2022/06/08 03:36:33;;;;;;;2.58;1.88;;;20.10;62.20;;;;;;5075052;28;20533;-62
2022/06/08 03:38:59;;;;;;;3.08;1.77;;;20.10;62.20;;;;;;5074010;28;20048;-63
2022/06/08 03:41:24;;;;;;;2.78;1.90;;;20.00;62.20;;;;;;5075327;28;20122;-63
2022/06/08 03:43:50;;;;;;;3.55;2.35;;;20.00;62.20;;;;;;5074703;28;20048;-62
2022/06/08 03:46:15;;;;;;;3.72;1.92;;;20.10;62.20;;;;;;5074336;28;20036;-62
2022/06/08 03:48:41;;;;;;;3.03;1.92;;;20.00;62.20;;;;;;5074899;28;20044;-63
2022/06/08 03:51:06;;;;;;;3.17;1.85;;;20.00;62.20;;;;;;5069888;28;20087;-63
2022/06/08 03:53:56;;;;;;;3.22;1.90;;;20.00;62.20;;;;;;5036362;28;20041;-63
2022/06/08 03:56:22;;;;;;;3.05;1.80;;;20.10;62.20;;;;;;5049822;28;20087;-63
2022/06/08 03:58:48;;;;;;;3.25;1.90;;;20.00;62.20;;;;;;5052888;28;20049;-62
2022/06/08 04:01:13;;;;;;;3.47;1.90;;;20.00;62.20;;;;;;5053632;28;20095;-63
2022/06/08 04:03:39;;;;;;;4.93;2.00;;;20.00;62.10;;;;;;5053393;28;20404;-62
2022/06/08 04:06:04;;;;;;;3.50;1.90;;;20.00;62.10;;;;;;5054007;28;20037;-63
2022/06/08 04:08:31;;;;;;;4.00;1.88;;;20.00;62.20;;;;;;5054595;28;20123;-63
2022/06/08 04:10:57;;;;;;;2.80;1.90;;;20.00;62.20;;;;;;5053885;28;20040;-63
2022/06/08 04:13:23;;;;;;;2.45;1.70;;;20.00;62.10;;;;;;5071006;28;20048;-62
2022/06/08 04:15:49;;;;;;;3.70;2.05;;;20.00;62.10;;;;;;5071775;28;20047;-63
2022/06/08 04:18:19;;;;;;;3.30;2.00;;;20.00;62.20;;;;;;5074236;28;20617;-62
2022/06/08 04:20:47;;;;;;;3.15;2.10;;;20.00;62.20;;;;;;5073609;28;20052;-63
2022/06/08 04:23:12;;;;;;;4.17;2.20;;;20.00;62.20;;;;;;5074252;28;20081;-64
2022/06/08 04:25:39;;;;;;;3.33;2.22;;;20.00;62.10;;;;;;5074259;28;20040;-62
2022/06/08 04:28:05;;;;;;;2.60;1.70;;;20.00;62.10;;;;;;5073590;28;20044;-63
2022/06/08 04:30:31;;;;;;;3.60;2.17;;;20.00;62.10;;;;;;5074210;28;20044;-63
2022/06/08 04:32:57;;;;;;;3.50;2.08;;;20.00;62.10;;;;;;5073912;28;20082;-62
2022/06/08 04:35:24;;;;;;;3.70;2.00;;;20.00;62.10;;;;;;5073271;28;20155;-63
2022/06/08 04:37:50;;;;;;;3.35;2.20;;;20.00;62.10;;;;;;5074019;28;20032;-63
2022/06/08 04:40:16;;;;;;;3.08;2.22;;;20.00;62.20;;;;;;5073881;28;20378;-63
2022/06/08 04:42:42;;;;;;;3.30;2.00;;;20.00;62.20;;;;;;5072974;28;20519;-63
2022/06/08 04:45:08;;;;;;;3.63;1.85;;;20.00;62.20;;;;;;5074088;28;20484;-63
2022/06/08 04:47:34;;;;;;;3.08;1.85;;;20.00;62.20;;;;;;5074006;28;20036;-63
2022/06/08 04:50:00;;;;;;;3.85;2.25;;;20.00;62.20;;;;;;5072342;28;20492;-63
2022/06/08 04:52:25;;;;;;;3.70;2.17;;;20.00;62.20;;;;;;5074052;28;20037;-63
2022/06/08 04:54:51;;;;;;;3.10;2.05;;;20.00;62.20;;;;;;5072457;28;20044;-63
2022/06/08 04:57:16;;;;;;;4.88;2.20;;;19.90;62.10;;;;;;5073472;28;20063;-63
2022/06/08 04:59:42;;;;;;;2.70;1.98;;;19.90;62.10;;;;;;5073406;28;20500;-63
2022/06/08 05:02:08;;;;;;;3.78;2.35;;;20.00;62.20;;;;;;5072945;28;20079;-63
2022/06/08 05:04:33;;;;;;;4.03;2.25;;;20.00;62.10;;;;;;5073043;28;20036;-63
2022/06/08 05:06:59;;;;;;;3.20;1.92;;;20.00;62.10;;;;;;5073341;28;20044;-63
2022/06/08 05:09:25;;;;;;;3.38;2.20;;;19.90;62.10;;;;;;5072508;28;20047;-63
2022/06/08 05:11:50;;;;;;;3.47;2.28;;;20.00;62.20;;;;;;5071752;28;20123;-63
2022/06/08 05:14:16;;;;;;;4.07;2.10;;;20.00;62.10;;;;;;5073553;28;20033;-63
2022/06/08 05:16:42;;;;;;;3.75;2.17;;;19.90;62.00;;;;;;5071913;28;20044;-63
2022/06/08 05:19:07;;;;;;;3.30;1.92;;;19.90;62.10;;;;;;5073423;28;20175;-63
2022/06/08 05:21:33;;;;;;;3.42;2.30;;;19.90;62.10;;;;;;5073186;28;20131;-63
2022/06/08 05:23:58;;;;;;;3.35;2.30;;;19.90;62.10;;;;;;5071448;28;20075;-63
2022/06/08 05:26:24;;;;;;;3.70;2.15;;;20.00;62.10;;;;;;5073196;28;20052;-63
2022/06/08 05:28:50;;;;;;;3.53;2.30;;;19.90;62.10;;;;;;5072771;28;20065;-63
2022/06/08 05:31:15;;;;;;;2.70;2.17;;;20.00;62.10;;;;;;5072155;28;20530;-63
2022/06/08 05:33:41;;;;;;;3.65;2.40;;;19.90;62.00;;;;;;5072595;28;20040;-63
2022/06/08 05:36:07;;;;;;;3.55;1.95;;;19.90;62.00;;;;;;5073061;28;20051;-63
2022/06/08 05:38:35;;;;;;;2.80;1.90;;;19.90;62.10;;;;;;5072063;28;20377;-63
2022/06/08 05:41:01;;;;;;;3.80;2.33;;;19.90;62.10;;;;;;5072349;28;20045;-63
2022/06/08 05:43:27;;;;;;;4.00;2.45;;;19.90;62.00;;;;;;5072768;28;20050;-63
2022/06/08 05:45:52;;;;;;;3.45;2.28;;;19.90;62.00;;;;;;5071921;28;20155;-63
2022/06/08 05:48:18;;;;;;;3.00;2.00;;;19.90;62.00;;;;;;5072755;28;20078;-63
2022/06/08 05:50:44;;;;;;;3.70;2.00;;;19.90;62.10;;;;;;5071784;28;20049;-63
2022/06/08 05:53:10;;;;;;;2.58;1.90;;;20.00;62.20;;;;;;5072378;28;20115;-63
2022/06/08 05:55:35;;;;;;;4.10;2.15;;;19.90;62.10;;;;;;5072493;28;20093;-63
2022/06/08 05:58:01;;;;;;;5.22;2.50;;;19.90;62.10;;;;;;5071861;28;20051;-63
2022/06/08 06:00:32;;;;;;;3.38;1.90;;;19.90;62.10;;;;;;5072158;28;20136;-63
2022/06/08 06:02:58;;;;;;;3.53;2.40;;;20.00;62.20;;;;;;5072826;28;20477;-63
2022/06/08 06:05:26;;;;;;;3.08;2.25;;;19.90;62.10;;;;;;5071946;28;20051;-63
2022/06/08 06:07:52;;;;;;;3.85;2.28;;;20.00;62.20;;;;;;5072006;28;20115;-63
2022/06/08 06:10:18;;;;;;;3.85;2.05;;;20.00;62.20;;;;;;5071748;28;20079;-63
2022/06/08 06:12:43;;;;;;;2.88;2.10;;;20.00;62.20;;;;;;5071538;28;20067;-63
2022/06/08 06:15:10;;;;;;;3.75;2.28;;;20.00;62.30;;;;;;5072524;28;20036;-63
2022/06/08 06:17:35;;;;;;;3.88;2.17;;;20.00;62.30;;;;;;5054416;28;20119;-63
2022/06/08 06:20:01;;;;;;;3.85;2.35;;;20.00;62.40;;;;;;5070729;28;20131;-63
2022/06/08 06:22:26;;;;;;;3.72;2.67;;;20.00;62.40;;;;;;5072341;28;20044;-63
2022/06/08 06:24:52;;;;;;;3.22;2.13;;;20.00;62.50;;;;;;5072064;28;20131;-64
2022/06/08 06:27:18;;;;;;;3.30;2.38;;;20.00;62.60;;;;;;5070358;28;20048;-63
2022/06/08 06:29:43;;;;;;;3.58;2.45;;;20.00;62.60;;;;;;5071909;28;20127;-64
2022/06/08 06:32:17;;;;;;;3.78;2.65;;;20.00;63.30;;;;;;5072465;28;20048;-63
2022/06/08 06:34:43;;;;;;;2.72;2.17;;;20.00;62.80;;;;;;5073160;28;20059;-64
2022/06/08 06:37:09;;;;;;;3.25;2.13;;;20.10;62.90;;;;;;5076700;28;20041;-63
2022/06/08 06:39:34;;;;;;;3.53;2.17;;;20.10;62.90;;;;;;5076217;28;20047;-63
2022/06/08 06:42:00;;;;;;;3.65;2.13;;;20.10;62.90;;;;;;5074901;28;20044;-63
2022/06/08 06:44:25;;;;;;;3.25;2.08;;;20.10;62.90;;;;;;5076476;28;20064;-64
2022/06/08 06:46:51;;;;;;;3.70;2.33;;;20.10;63.00;;;;;;5075972;28;20412;-64
2022/06/08 06:49:17;;;;;;;2.65;2.03;;;20.10;63.00;;;;;;5075588;28;20036;-63
2022/06/08 06:51:42;;;;;;;3.13;2.22;;;20.20;63.10;;;;;;5075915;28;20063;-63
2022/06/08 06:54:09;;;;;;;3.22;1.92;;;20.20;63.10;;;;;;5076081;28;20036;-63
2022/06/08 06:56:35;;;;;;;3.80;2.38;;;20.20;63.10;;;;;;5074035;28;20056;-63
2022/06/08 06:59:01;;;;;;;5.28;2.45;;;20.20;63.00;;;;;;5075744;28;20146;-62
2022/06/08 07:01:27;;;;;;;3.17;2.20;;;20.20;63.00;;;;;;5074021;28;20049;-62
2022/06/08 07:03:52;;;;;;;4.05;2.40;;;20.30;63.10;;;;;;5075639;28;20388;-63
2022/06/08 07:06:18;;;;;;;2.85;2.00;;;20.30;63.00;;;;;;5075789;28;20044;-63
2022/06/08 07:08:43;;;;;;;3.85;2.17;;;20.30;63.00;;;;;;5074588;28;20131;-63
2022/06/08 07:13:55;;;;;;;5.10;2.58;;;20.40;63.00;;;;;;5074531;28;20061;-63
2022/06/08 07:16:21;;;;;;;3.67;2.45;;;20.40;62.90;;;;;;5074862;28;20045;-62
2022/06/08 07:18:46;;;;;;;3.50;2.13;;;20.40;63.00;;;;;;5075243;28;20044;-62
2022/06/08 07:21:12;;;;;;;3.15;2.35;;;20.40;62.90;;;;;;5075376;28;20044;-62
2022/06/08 07:23:38;;;;;;;3.78;2.17;;;20.50;63.00;;;;;;5074291;28;20109;-62
2022/06/08 07:26:04;;;;;;;3.45;2.42;;;20.50;63.00;;;;;;5075078;28;20044;-62
2022/06/08 07:28:30;;;;;;;3.20;2.15;;;20.50;62.90;;;;;;5075292;28;20044;-63
2022/06/08 07:30:56;;;;;;;3.42;2.28;;;20.50;63.00;;;;;;5074192;28;20036;-62
2022/06/08 07:33:22;;;;;;;5.07;2.40;;;20.50;62.90;;;;;;5075242;28;20051;-62
2022/06/08 07:35:47;;;;;;;4.50;2.90;;;20.50;63.00;;;;;;5074743;28;20049;-62
2022/06/08 07:38:13;;;;;;;3.47;2.35;;;20.50;62.90;;;;;;5074558;28;20037;-62
2022/06/08 07:40:38;;;;;;;3.92;2.50;;;20.60;62.90;;;;;;5075261;28;20048;-62
2022/06/08 07:43:04;;;;;;;3.90;2.30;;;20.60;62.90;;;;;;5075015;28;20033;-65
2022/06/08 07:45:30;;;;;;;4.05;2.33;;;20.60;62.80;;;;;;5073878;28;20190;-62
2022/06/08 07:50:41;;;;;;;3.90;2.35;;;20.60;63.50;;;;;;5074168;28;20045;-62
2022/06/08 07:53:10;;;;;;;3.65;2.20;;;20.60;62.90;;;;;;5075094;28;20051;-62
2022/06/08 07:55:35;;;;;;;2.97;2.00;;;20.60;62.90;;;;;;5074916;28;20044;-63
2022/06/08 07:58:03;;;;;;;3.47;2.17;;;20.70;62.90;;;;;;5072430;28;20087;-62
2022/06/08 08:00:29;;;;;;;2.75;1.95;;;20.70;62.90;;;;;;5074922;28;20049;-62
2022/06/08 08:02:55;;;;;;;2.50;1.58;;;20.70;62.90;;;;;;5073098;28;20048;-63
2022/06/08 08:05:22;;;;;;;3.53;2.20;;;20.70;62.90;;;;;;5073734;28;20045;-63
2022/06/08 08:07:48;;;;;;;3.63;1.80;;;20.70;62.90;;;;;;5074355;28;20388;-63
2022/06/08 08:10:15;;;;;;;3.00;2.30;;;20.70;62.90;;;;;;5074656;28;20045;-63
2022/06/08 08:12:41;;;;;;;2.78;1.80;;;20.70;62.90;;;;;;5073533;28;20055;-63
2022/06/08 08:15:07;;;;;;;3.60;2.47;;;20.70;62.90;;;;;;5074335;28;20127;-62
2022/06/08 08:17:33;;;;;;;2.85;1.88;;;20.70;62.90;;;;;;5073968;28;20071;-63
2022/06/08 08:20:05;;;;;;;3.28;1.83;;;20.70;63.50;;;;;;5071763;28;20083;-62
2022/06/08 08:22:31;;;;;;;2.95;2.00;;;20.80;62.90;;;;;;5074233;28;20181;-63
2022/06/08 08:24:57;;;;;;;2.75;2.00;;;20.80;62.90;;;;;;5074200;28;20389;-63
2022/06/08 08:27:22;;;;;;;2.42;1.75;;;20.80;62.90;;;;;;5073632;28;20127;-63
2022/06/08 08:29:48;;;;;;;3.42;1.90;;;20.80;62.90;;;;;;5074109;28;20102;-63
2022/06/08 08:32:13;;;;;;;3.72;1.90;;;20.90;62.90;;;;;;5074085;28;20109;-63
2022/06/08 08:34:39;;;;;;;2.83;2.00;;;20.90;62.80;;;;;;5073457;28;20131;-63
2022/06/08 08:37:04;;;;;;;2.90;1.80;;;20.90;62.90;;;;;;5074194;28;20174;-63
2022/06/08 08:39:30;;;;;;;2.97;2.05;;;20.90;62.80;;;;;;5074288;28;20040;-63
2022/06/08 08:44:42;;;;;;;2.72;1.73;;;21.00;62.80;;;;;;5072952;28;20045;-63
2022/06/08 08:47:26;;;;;;;3.22;1.95;;;21.00;62.80;;;;;;5073083;28;20515;-63
2022/06/08 08:50:16;;;;;;;3.53;2.00;;;21.00;62.80;;;;;;5072318;28;20060;-63
2022/06/08 08:52:48;;;;;;;3.53;1.80;;;21.00;62.80;;;;;;5073806;28;20052;-63
2022/06/08 08:55:23;;;;;;;2.38;1.90;;;21.10;62.70;;;;;;5072967;28;20037;-63
2022/06/08 08:58:00;;;;;;;3.00;1.83;;;21.10;62.70;;;;;;5072444;28;20063;-63
2022/06/08 09:00:31;;;;;;;2.97;1.60;;;21.10;62.70;;;;;;5072552;28;20045;-63
2022/06/08 09:03:15;;;;;;;2.20;1.58;;;21.10;62.70;;;;;;5072366;28;20123;-63
2022/06/08 09:05:42;;;;;;;3.70;2.00;;;21.10;62.70;;;;;;5073104;28;20040;-63
2022/06/08 09:08:10;;;;;;;2.13;1.67;;;21.10;62.60;;;;;;5071864;28;20052;-63
2022/06/08 09:10:35;;;;;;;2.95;1.90;;;21.10;62.60;;;;;;5073541;28;20298;-63
2022/06/08 09:13:03;;;;;;;4.15;1.73;;;21.10;62.60;;;;;;5073158;28;20094;-62
2022/06/08 09:15:45;;;;;;;2.95;1.70;;;21.10;62.60;;;;;;5072390;28;20052;-63
2022/06/08 09:18:30;;;;;;;2.40;1.70;;;21.20;62.60;;;;;;5073144;28;20097;-63
2022/06/08 09:20:56;;;;;;;3.28;1.88;;;21.10;62.60;;;;;;5066878;28;20044;-63
2022/06/08 09:23:41;;;;;;;2.20;1.75;;;21.10;62.60;;;;;;5051034;28;20064;-63
2022/06/08 09:26:16;;;;;;;2.20;1.70;;;21.10;62.60;;;;;;5053338;28;20037;-63
2022/06/08 09:28:42;;;;;;;2.10;1.50;;;21.10;62.60;;;;;;5051572;28;20052;-63
2022/06/08 09:31:31;;;;;;;2.50;1.60;;;21.10;62.60;;;;;;5052514;28;20036;-62
2022/06/08 09:34:20;;;;;;;3.00;1.77;;;21.10;62.60;;;;;;5052790;28;20052;-62
2022/06/08 09:36:46;;;;;;;1.85;1.27;;;21.10;62.60;;;;;;5071737;28;20045;-63
2022/06/08 09:39:16;;;;;;;2.42;1.65;;;21.10;62.60;;;;;;5073029;28;20127;-63
2022/06/08 09:41:49;;;;;;;2.15;1.50;;;21.10;62.60;;;;;;5071344;28;20048;-62
2022/06/08 09:44:29;;;;;;;3.05;1.52;;;21.10;62.60;;;;;;5054647;28;20044;-62
2022/06/08 09:53:30;;;;;;;2.20;1.50;;;21.10;62.60;;;;;;5072042;28;20044;-62
2022/06/08 09:56:05;;;;;;;2.60;1.73;;;21.10;62.60;;;;;;5072007;28;20460;-62
2022/06/08 09:58:46;;;;;;;2.40;1.45;;;21.10;62.60;;;;;;5071898;28;20141;-63
2022/06/08 10:01:29;;;;;;;1.88;1.27;;;21.20;62.60;;;;;;5072664;28;20175;-62
2022/06/08 10:03:58;;;;;;;2.97;1.50;;;21.20;62.60;;;;;;5070941;28;20044;-62
2022/06/08 10:06:36;;;;;;;2.97;1.40;;;21.20;62.60;;;;;;5070465;28;20080;-62
2022/06/08 10:09:13;;;;;;;2.17;1.70;;;21.20;62.60;;;;;;5070728;28;20504;-62
2022/06/08 10:12:08;;;;;;;2.42;1.52;;;21.20;62.60;;;;;;5070631;28;20055;-62
2022/06/08 10:14:49;;;;;;;1.83;1.30;;;21.20;62.60;;;;;;5071446;28;20099;-62
2022/06/08 10:17:17;;;;;;;3.40;1.70;;;21.20;62.60;;;;;;5071323;28;20098;-63
2022/06/08 10:19:53;;;;;;;1.92;1.40;;;21.20;62.60;;;;;;5070781;28;20101;-63
2022/06/08 10:22:19;;;;;;;1.90;1.30;;;21.20;62.60;;;;;;5071192;28;20117;-63
2022/06/08 10:25:16;;;;;;;2.97;1.40;;;21.20;62.60;;;;;;5071594;28;20139;-63
2022/06/08 10:27:53;;;;;;;2.30;1.48;;;21.20;62.60;;;;;;5070205;28;20143;-63
2022/06/08 10:30:26;;;;;;;2.00;1.40;;;21.20;62.60;;;;;;5072653;28;20048;-63
2022/06/08 10:32:54;;;;;;;2.67;1.50;;;21.20;62.50;;;;;;5070641;28;20446;-63
2022/06/08 10:35:43;;;;;;;2.03;1.27;;;21.30;62.60;;;;;;5070565;28;20048;-63
2022/06/08 10:38:34;;;;;;;2.50;1.42;;;21.30;62.60;;;;;;5087283;28;20059;-63
2022/06/08 10:43:56;;;;;;;2.75;1.67;;;21.30;62.50;;;;;;5072054;28;20052;-63
2022/06/08 10:46:29;;;;;;;2.88;1.58;;;21.30;62.60;;;;;;5071379;28;20091;-63
2022/06/08 10:48:55;;;;;;;2.45;1.52;;;21.30;62.50;;;;;;5071006;28;20044;-63
2022/06/08 10:51:23;;;;;;;2.38;1.38;;;21.30;62.50;;;;;;5070865;28;20051;-63
2022/06/08 10:56:34;;;;;;;2.13;1.27;;;21.30;62.50;;;;;;5072096;28;20131;-63
2022/06/08 10:59:05;;;;;;;2.90;1.50;;;21.30;62.50;;;;;;5071953;28;20135;-63
2022/06/08 11:01:40;;;;;;;2.35;1.60;;;21.30;62.50;;;;;;5071219;28;20119;-63
2022/06/08 11:04:26;;;;;;;1.88;1.20;;;21.30;62.50;;;;;;5070630;28;20484;-63
2022/06/08 11:06:55;;;;;;;1.92;1.40;;;21.30;62.50;;;;;;5071545;28;20496;-63
2022/06/08 11:09:42;;;;;;;1.73;1.20;;;21.30;62.50;;;;;;5071331;28;20119;-63
2022/06/08 11:12:11;;;;;;;;;;;21.30;62.50;;;;;;5072154;28;20399;-63
2022/06/08 11:14:42;;;;;;;2.45;1.42;;;21.30;62.50;;;;;;5071203;28;19926;-63
2022/06/08 11:17:09;;;;;;;1.63;1.30;;;21.30;62.60;;;;;;5071717;28;20044;-63
2022/06/08 11:19:35;;;;;;;1.90;1.40;;;21.30;62.50;;;;;;5070705;28;20119;-63
2022/06/08 11:22:11;;;;;;;2.00;1.20;;;21.30;62.60;;;;;;5072237;28;20119;-61
2022/06/08 11:24:42;;;;;;;2.50;1.60;;;21.30;62.60;;;;;;5074623;28;20044;-63
2022/06/08 11:27:11;;;;;;;1.80;1.20;;;21.40;62.50;;;;;;5074387;28;20114;-62
2022/06/08 11:29:56;;;;;;;1.80;1.15;;;21.40;62.60;;;;;;5074477;28;20059;-62
2022/06/08 11:32:31;;;;;;;2.05;1.40;;;21.40;62.50;;;;;;5075418;28;20173;-62
2022/06/08 11:35:20;;;;;;;2.03;1.33;;;21.40;62.50;;;;;;5074979;28;20125;-62
2022/06/08 11:38:15;;;;;;;2.13;1.27;;;21.40;62.50;;;;;;5073311;28;20047;-63
2022/06/08 11:40:41;;;;;;;1.73;1.00;;;21.50;62.50;;;;;;5074885;28;20045;-63
2022/06/08 11:43:07;;;;;;;1.90;1.30;;;21.50;62.40;;;;;;5074434;28;20086;-63
2022/06/08 11:45:47;;;;;;;2.42;1.30;;;21.50;62.40;;;;;;5075064;28;20040;-62
2022/06/08 11:48:40;;;;;;;1.90;1.20;;;21.50;62.40;;;;;;5074909;28;20040;-63
2022/06/08 11:51:05;;;;;;;2.13;1.38;;;21.50;62.40;;;;;;5074167;28;20097;-63
2022/06/08 11:53:31;;;;;;;1.70;1.10;;;21.50;62.30;;;;;;5075104;28;20040;-63
2022/06/08 11:56:05;;;;;;;1.52;1.25;;;21.50;62.40;;;;;;5074426;28;20140;-63
2022/06/08 11:58:31;;;;;;;2.58;1.10;;;21.50;62.40;;;;;;5074401;28;20032;-63
2022/06/08 12:00:58;;;;;;;1.63;1.10;;;21.50;62.40;;;;;;5073168;28;20507;-63
2022/06/08 12:03:44;;;;;;;1.90;1.00;;;21.50;62.40;;;;;;5073857;28;20048;-63
2022/06/08 12:06:24;;;;;;;1.60;1.10;;;21.50;62.40;;;;;;5073068;28;20041;-63
2022/06/08 12:09:00;;;;;;;3.15;1.30;;;21.50;62.40;;;;;;5074274;28;20040;-63
2022/06/08 12:11:29;;;;;;;2.17;1.10;;;21.50;62.40;;;;;;5073782;28;20044;-63
2022/06/08 12:14:23;;;;;;;2.40;1.23;;;21.40;62.50;;;;;;5073215;28;20043;-63
2022/06/08 12:17:03;;;;;;;3.35;1.23;;;21.40;62.60;;;;;;5073742;28;20052;-63
2022/06/08 12:19:32;;;;;;;2.35;1.25;;;21.40;62.70;;;;;;5073622;28;20040;-63
2022/06/08 12:22:30;;;;;;;2.00;1.33;;;21.30;62.70;;;;;;5073623;28;20123;-63
2022/06/08 12:25:19;;;;;;;1.88;1.20;;;21.30;62.60;;;;;;5065113;28;20048;-62
2022/06/08 12:27:52;;;;;;;2.22;1.27;;;21.30;62.70;;;;;;5073613;28;20117;-62
2022/06/08 12:30:21;;;;;;;2.65;1.10;;;21.30;62.70;;;;;;5074348;28;20056;-62
2022/06/08 12:33:04;;;;;;;2.67;1.02;;;21.20;62.70;;;;;;5072871;28;20413;-62
2022/06/08 12:35:38;;;;;;;2.08;1.05;;;21.20;62.70;;;;;;5073808;28;20059;-62
2022/06/08 12:38:22;;;;;;;1.85;1.15;;;21.20;62.70;;;;;;5073925;28;20090;-62
2022/06/08 12:40:59;;;;;;;1.35;1.02;;;21.20;62.70;;;;;;5073098;28;20037;-62
2022/06/08 12:43:34;;;;;;;4.18;1.40;;;21.20;62.80;;;;;;5074221;28;20457;-62
2022/06/08 12:46:21;;;;;;;1.42;1.25;;;21.20;62.80;;;;;;5073152;28;20084;-62
2022/06/08 12:48:47;;;;;;;3.10;1.27;;;21.10;62.80;;;;;;5073720;28;20074;-62
2022/06/08 12:51:32;;;;;;;1.85;1.05;;;21.10;62.80;;;;;;5074113;28;20093;-62
2022/06/08 12:53:59;;;;;;;2.63;1.10;;;21.10;62.80;;;;;;5072923;28;20094;-62
2022/06/08 12:56:25;;;;;;;2.70;1.13;;;21.10;62.90;;;;;;5073601;28;20056;-62
2022/06/08 12:58:51;;;;;;;1.90;1.10;;;21.10;62.90;;;;;;5073338;28;20048;-62
2022/06/08 13:01:18;;;;;;;2.33;1.15;;;21.10;63.50;;;;;;5072579;28;20078;-62
2022/06/08 13:03:43;;;;;;;1.02;0.90;;;21.10;62.90;;;;;;5073460;28;20052;-62
2022/06/08 13:06:09;;;;;;;2.70;1.20;;;21.10;63.00;;;;;;5073586;28;20041;-62
2022/06/08 13:08:35;;;;;;;1.30;1.00;;;21.10;63.00;;;;;;5072736;28;20122;-63
2022/06/08 13:11:04;;;;;;;1.33;0.85;;;21.10;63.00;;;;;;5073206;28;20400;-62
2022/06/08 13:13:31;;;;;;;3.67;1.08;;;21.10;63.00;;;;;;5071810;28;20048;-62
2022/06/08 13:15:57;;;;;;;1.92;0.98;;;21.10;63.00;;;;;;5071299;28;20048;-63
2022/06/08 13:18:25;;;;;;;2.85;1.10;;;21.10;62.90;;;;;;5072293;28;20037;-62
2022/06/08 13:20:55;;;;;;;1.15;0.90;;;21.10;62.90;;;;;;5072834;28;20400;-62
2022/06/08 13:23:21;;;;;;;2.28;1.02;;;21.10;63.00;;;;;;5072249;28;20094;-62
2022/06/08 13:25:48;;;;;;;1.60;0.90;;;21.10;63.00;;;;;;5072868;28;20036;-62
2022/06/08 13:28:18;;;;;;;2.95;0.85;;;21.20;63.00;;;;;;5072158;28;20036;-62
2022/06/08 13:30:45;;;;;;;2.10;0.80;;;21.20;63.00;;;;;;5073105;28;20177;-62